Select Airport:
Chesapeake Regional Airport
Last updated: 20 minutes ago
Flight conditions: VFR
Visibility: 10.0 statute miles
Sky Conditions:
   Scattered clouds at 1200 feet
Wind From:
Wind speed: 0 knots (0 mph)
Temperature: 17.5°C (63.5°F)
Dew Point: 17.0°C (62.6°F)
Altimiter setting: 29.86 in-hg
WX phone: 1-757-204-4290
WX freq: 123.675 MHz
No wind, all runways available.
If at an uncontrolled airport, be sure to listen carefully to the CTAF for the runway(s) in use.
KCPK 291055Z AUTO 00000KT 10SM SCT012 18/17 A2986 RMK AO2 T01750170
FOR REFERENCE USE ONLY, DATA MAY NOT BE CURRENT.
ALWAYS CHECK FOR UP TO DATE INFORMATION.